sensor_id;sensor_type;location;lat;lon;timestamp;temperature;humidity
59303;DHT22;45074;52.764;6.896;2023-05-07T00:01:17;14.20;99.90
59303;DHT22;45074;52.764;6.896;2023-05-07T00:03:42;15.00;99.90
59303;DHT22;45074;52.764;6.896;2023-05-07T00:06:08;14.50;99.90
59303;DHT22;45074;52.764;6.896;2023-05-07T00:08:35;14.40;99.90
59303;DHT22;45074;52.764;6.896;2023-05-07T00:11:01;15.10;99.90
59303;DHT22;45074;52.764;6.896;2023-05-07T00:13:26;14.20;99.90
59303;DHT22;45074;52.764;6.896;2023-05-07T00:15:52;14.10;99.90
59303;DHT22;45074;52.764;6.896;2023-05-07T00:18:18;14.70;99.90
59303;DHT22;45074;52.764;6.896;2023-05-07T00:20:46;16.10;99.90
59303;DHT22;45074;52.764;6.896;2023-05-07T00:23:11;13.50;99.90
59303;DHT22;45074;52.764;6.896;2023-05-07T00:25:37;14.60;99.90
59303;DHT22;45074;52.764;6.896;2023-05-07T00:28:03;13.90;99.90
59303;DHT22;45074;52.764;6.896;2023-05-07T00:30:29;13.80;99.90
59303;DHT22;45074;52.764;6.896;2023-05-07T00:32:54;13.70;99.90
59303;DHT22;45074;52.764;6.896;2023-05-07T00:35:20;13.50;99.90
59303;DHT22;45074;52.764;6.896;2023-05-07T00:37:46;13.80;99.90
59303;DHT22;45074;52.764;6.896;2023-05-07T00:40:11;13.50;99.90
59303;DHT22;45074;52.764;6.896;2023-05-07T00:42:37;13.70;99.90
59303;DHT22;45074;52.764;6.896;2023-05-07T00:45:03;13.60;99.90
59303;DHT22;45074;52.764;6.896;2023-05-07T00:47:29;13.70;99.90
59303;DHT22;45074;52.764;6.896;2023-05-07T00:49:55;14.10;99.90
59303;DHT22;45074;52.764;6.896;2023-05-07T00:52:25;13.60;99.90
59303;DHT22;45074;52.764;6.896;2023-05-07T00:54:51;13.40;99.90
59303;DHT22;45074;52.764;6.896;2023-05-07T00:57:17;13.30;99.90
59303;DHT22;45074;52.764;6.896;2023-05-07T00:59:43;14.40;99.90
59303;DHT22;45074;52.764;6.896;2023-05-07T01:02:08;13.50;99.90
59303;DHT22;45074;52.764;6.896;2023-05-07T01:04:34;13.40;99.90
59303;DHT22;45074;52.764;6.896;2023-05-07T01:07:01;13.20;99.90
59303;DHT22;45074;52.764;6.896;2023-05-07T01:14:20;13.20;99.90
59303;DHT22;45074;52.764;6.896;2023-05-07T01:16:47;13.80;99.90
59303;DHT22;45074;52.764;6.896;2023-05-07T01:19:15;13.20;99.90
59303;DHT22;45074;52.764;6.896;2023-05-07T01:21:45;13.70;99.90
59303;DHT22;45074;52.764;6.896;2023-05-07T01:24:11;13.10;99.90
59303;DHT22;45074;52.764;6.896;2023-05-07T01:26:38;13.10;99.90
59303;DHT22;45074;52.764;6.896;2023-05-07T01:29:05;13.50;99.90
59303;DHT22;45074;52.764;6.896;2023-05-07T01:31:32;13.30;99.90
59303;DHT22;45074;52.764;6.896;2023-05-07T01:33:59;13.10;99.90
59303;DHT22;45074;52.764;6.896;2023-05-07T01:36:25;13.40;99.90
59303;DHT22;45074;52.764;6.896;2023-05-07T01:38:53;14.30;99.90
59303;DHT22;45074;52.764;6.896;2023-05-07T01:41:19;13.60;99.90
59303;DHT22;45074;52.764;6.896;2023-05-07T01:43:46;13.30;99.90
59303;DHT22;45074;52.764;6.896;2023-05-07T01:46:12;12.60;99.90
59303;DHT22;45074;52.764;6.896;2023-05-07T01:48:38;13.80;99.90
59303;DHT22;45074;52.764;6.896;2023-05-07T01:53:38;12.70;99.90
59303;DHT22;45074;52.764;6.896;2023-05-07T01:56:04;13.30;99.90
59303;DHT22;45074;52.764;6.896;2023-05-07T01:58:30;12.70;99.90
59303;DHT22;45074;52.764;6.896;2023-05-07T02:00:56;13.70;99.90
59303;DHT22;45074;52.764;6.896;2023-05-07T02:03:22;13.20;99.90
59303;DHT22;45074;52.764;6.896;2023-05-07T02:08:14;10.40;99.90
59303;DHT22;45074;52.764;6.896;2023-05-07T02:10:39;12.80;99.90
59303;DHT22;45074;52.764;6.896;2023-05-07T02:13:05;12.50;99.90
59303;DHT22;45074;52.764;6.896;2023-05-07T02:15:30;13.40;99.90
59303;DHT22;45074;52.764;6.896;2023-05-07T02:18:05;12.50;99.90
59303;DHT22;45074;52.764;6.896;2023-05-07T02:20:31;14.30;99.90
59303;DHT22;45074;52.764;6.896;2023-05-07T02:22:57;13.90;99.90
59303;DHT22;45074;52.764;6.896;2023-05-07T02:25:23;12.10;99.90
59303;DHT22;45074;52.764;6.896;2023-05-07T02:27:48;12.50;99.90
59303;DHT22;45074;52.764;6.896;2023-05-07T02:30:14;14.00;99.90
59303;DHT22;45074;52.764;6.896;2023-05-07T02:32:40;12.40;99.90
59303;DHT22;45074;52.764;6.896;2023-05-07T02:35:06;13.50;99.90
59303;DHT22;45074;52.764;6.896;2023-05-07T02:37:32;12.20;99.90
59303;DHT22;45074;52.764;6.896;2023-05-07T02:39:57;12.30;99.90
59303;DHT22;45074;52.764;6.896;2023-05-07T02:42:23;13.00;99.90
59303;DHT22;45074;52.764;6.896;2023-05-07T02:44:48;12.70;99.90
59303;DHT22;45074;52.764;6.896;2023-05-07T02:47:15;12.70;99.90
59303;DHT22;45074;52.764;6.896;2023-05-07T02:49:41;13.70;99.90
59303;DHT22;45074;52.764;6.896;2023-05-07T02:52:06;14.90;99.90
59303;DHT22;45074;52.764;6.896;2023-05-07T02:54:32;12.00;99.90
59303;DHT22;45074;52.764;6.896;2023-05-07T02:56:58;12.00;99.90
59303;DHT22;45074;52.764;6.896;2023-05-07T02:59:24;12.10;99.90
59303;DHT22;45074;52.764;6.896;2023-05-07T03:01:50;12.00;99.90
59303;DHT22;45074;52.764;6.896;2023-05-07T03:04:16;12.70;99.90
59303;DHT22;45074;52.764;6.896;2023-05-07T03:06:42;12.30;99.90
59303;DHT22;45074;52.764;6.896;2023-05-07T03:09:07;12.10;99.90
59303;DHT22;45074;52.764;6.896;2023-05-07T03:11:34;11.90;99.90
59303;DHT22;45074;52.764;6.896;2023-05-07T03:14:01;11.90;99.90
59303;DHT22;45074;52.764;6.896;2023-05-07T03:16:27;13.80;99.90
59303;DHT22;45074;52.764;6.896;2023-05-07T03:18:52;11.90;99.90
59303;DHT22;45074;52.764;6.896;2023-05-07T03:21:18;11.40;99.90
59303;DHT22;45074;52.764;6.896;2023-05-07T03:26:10;11.90;99.90
59303;DHT22;45074;52.764;6.896;2023-05-07T03:28:36;11.40;99.90
59303;DHT22;45074;52.764;6.896;2023-05-07T03:31:02;12.10;99.90
59303;DHT22;45074;52.764;6.896;2023-05-07T03:33:28;11.90;99.90
59303;DHT22;45074;52.764;6.896;2023-05-07T03:35:53;10.90;99.90
59303;DHT22;45074;52.764;6.896;2023-05-07T03:38:19;12.20;99.90
59303;DHT22;45074;52.764;6.896;2023-05-07T03:40:45;11.80;99.90
59303;DHT22;45074;52.764;6.896;2023-05-07T03:43:10;11.60;99.90
59303;DHT22;45074;52.764;6.896;2023-05-07T03:45:36;13.20;99.90
59303;DHT22;45074;52.764;6.896;2023-05-07T03:48:02;11.40;99.90
59303;DHT22;45074;52.764;6.896;2023-05-07T03:50:27;11.80;99.90
59303;DHT22;45074;52.764;6.896;2023-05-07T03:52:53;11.60;99.90
59303;DHT22;45074;52.764;6.896;2023-05-07T03:55:18;11.20;99.90
59303;DHT22;45074;52.764;6.896;2023-05-07T03:57:44;11.70;99.90
59303;DHT22;45074;52.764;6.896;2023-05-07T04:00:10;11.40;99.90
59303;DHT22;45074;52.764;6.896;2023-05-07T04:05:02;11.80;99.90
59303;DHT22;45074;52.764;6.896;2023-05-07T04:07:28;11.70;99.90
59303;DHT22;45074;52.764;6.896;2023-05-07T04:09:54;11.30;99.90
59303;DHT22;45074;52.764;6.896;2023-05-07T04:12:19;11.30;99.90
59303;DHT22;45074;52.764;6.896;2023-05-07T04:14:45;12.10;99.90
59303;DHT22;45074;52.764;6.896;2023-05-07T04:17:10;11.60;99.90
59303;DHT22;45074;52.764;6.896;2023-05-07T04:19:36;11.30;99.90
59303;DHT22;45074;52.764;6.896;2023-05-07T04:22:02;10.20;99.90
59303;DHT22;45074;52.764;6.896;2023-05-07T04:24:30;11.30;99.90
59303;DHT22;45074;52.764;6.896;2023-05-07T04:26:56;11.40;99.90
59303;DHT22;45074;52.764;6.896;2023-05-07T04:29:21;12.00;99.90
59303;DHT22;45074;52.764;6.896;2023-05-07T04:31:47;12.00;99.90
59303;DHT22;45074;52.764;6.896;2023-05-07T04:34:13;11.70;99.90
59303;DHT22;45074;52.764;6.896;2023-05-07T04:36:39;11.70;99.90
59303;DHT22;45074;52.764;6.896;2023-05-07T04:39:05;13.00;99.90
59303;DHT22;45074;52.764;6.896;2023-05-07T04:41:31;12.40;99.90
59303;DHT22;45074;52.764;6.896;2023-05-07T04:43:57;13.50;99.90
59303;DHT22;45074;52.764;6.896;2023-05-07T04:46:24;11.70;99.90
59303;DHT22;45074;52.764;6.896;2023-05-07T04:48:50;11.70;99.90
59303;DHT22;45074;52.764;6.896;2023-05-07T04:51:15;11.50;99.90
59303;DHT22;45074;52.764;6.896;2023-05-07T04:53:41;11.80;99.90
59303;DHT22;45074;52.764;6.896;2023-05-07T04:56:08;11.80;99.90
59303;DHT22;45074;52.764;6.896;2023-05-07T04:58:34;11.60;99.90
59303;DHT22;45074;52.764;6.896;2023-05-07T05:01:00;11.80;99.90
59303;DHT22;45074;52.764;6.896;2023-05-07T05:03:25;13.50;99.90
59303;DHT22;45074;52.764;6.896;2023-05-07T05:05:51;11.40;99.90
59303;DHT22;45074;52.764;6.896;2023-05-07T05:08:18;11.70;99.90
59303;DHT22;45074;52.764;6.896;2023-05-07T05:10:43;11.80;99.90
59303;DHT22;45074;52.764;6.896;2023-05-07T05:13:10;11.80;99.90
59303;DHT22;45074;52.764;6.896;2023-05-07T05:15:38;11.70;99.90
59303;DHT22;45074;52.764;6.896;2023-05-07T05:18:04;13.00;99.90
59303;DHT22;45074;52.764;6.896;2023-05-07T05:20:30;12.10;99.90
59303;DHT22;45074;52.764;6.896;2023-05-07T05:22:55;11.70;99.90
59303;DHT22;45074;52.764;6.896;2023-05-07T05:57:00;10.70;99.90
59303;DHT22;45074;52.764;6.896;2023-05-07T06:31:14;14.30;99.90
59303;DHT22;45074;52.764;6.896;2023-05-07T07:00:27;12.80;99.90
59303;DHT22;45074;52.764;6.896;2023-05-07T07:02:54;12.80;99.90
59303;DHT22;45074;52.764;6.896;2023-05-07T07:05:20;12.90;99.90
59303;DHT22;45074;52.764;6.896;2023-05-07T07:10:19;12.90;99.90
59303;DHT22;45074;52.764;6.896;2023-05-07T07:12:44;13.10;99.90
59303;DHT22;45074;52.764;6.896;2023-05-07T07:39:32;13.40;99.90
59303;DHT22;45074;52.764;6.896;2023-05-07T07:44:25;13.60;99.90
59303;DHT22;45074;52.764;6.896;2023-05-07T07:56:35;14.00;99.90
59303;DHT22;45074;52.764;6.896;2023-05-07T08:13:38;14.20;99.90
59303;DHT22;45074;52.764;6.896;2023-05-07T08:25:49;14.30;99.90
59303;DHT22;45074;52.764;6.896;2023-05-07T08:33:09;14.60;99.90
59303;DHT22;45074;52.764;6.896;2023-05-07T08:40:27;14.70;99.90
59303;DHT22;45074;52.764;6.896;2023-05-07T08:47:57;15.00;99.90
59303;DHT22;45074;52.764;6.896;2023-05-07T09:00:09;15.80;99.90
59303;DHT22;45074;52.764;6.896;2023-05-07T09:12:21;16.20;99.90
59303;DHT22;45074;52.764;6.896;2023-05-07T09:32:03;17.00;99.90
59303;DHT22;45074;52.764;6.896;2023-05-07T09:36:58;17.40;99.90
59303;DHT22;45074;52.764;6.896;2023-05-07T09:39:25;17.40;99.90
59303;DHT22;45074;52.764;6.896;2023-05-07T09:46:47;17.70;99.90
59303;DHT22;45074;52.764;6.896;2023-05-07T09:49:23;17.70;99.90
59303;DHT22;45074;52.764;6.896;2023-05-07T09:51:51;18.00;99.90
59303;DHT22;45074;52.764;6.896;2023-05-07T09:56:44;18.30;99.90
59303;DHT22;45074;52.764;6.896;2023-05-07T09:59:13;18.60;99.90
59303;DHT22;45074;52.764;6.896;2023-05-07T10:01:41;18.80;99.90
59303;DHT22;45074;52.764;6.896;2023-05-07T10:09:05;19.20;99.90
59303;DHT22;45074;52.764;6.896;2023-05-07T10:11:35;19.20;99.90
59303;DHT22;45074;52.764;6.896;2023-05-07T10:29:28;20.30;99.90
59303;DHT22;45074;52.764;6.896;2023-05-07T10:34:45;20.80;99.90
59303;DHT22;45074;52.764;6.896;2023-05-07T10:42:12;20.20;99.90
59303;DHT22;45074;52.764;6.896;2023-05-07T10:52:22;20.70;99.90
59303;DHT22;45074;52.764;6.896;2023-05-07T11:05:30;20.80;99.90
59303;DHT22;45074;52.764;6.896;2023-05-07T11:07:57;20.70;99.90
59303;DHT22;45074;52.764;6.896;2023-05-07T11:15:45;21.50;99.90
59303;DHT22;45074;52.764;6.896;2023-05-07T11:18:14;23.10;99.90
59303;DHT22;45074;52.764;6.896;2023-05-07T11:20:56;21.80;99.90
59303;DHT22;45074;52.764;6.896;2023-05-07T11:26:06;21.90;99.90
59303;DHT22;45074;52.764;6.896;2023-05-07T11:28:37;22.10;99.90
59303;DHT22;45074;52.764;6.896;2023-05-07T11:40:55;22.70;99.90
59303;DHT22;45074;52.764;6.896;2023-05-07T14:45:06;21.70;99.90
59303;DHT22;45074;52.764;6.896;2023-05-07T14:47:32;20.80;99.90
59303;DHT22;45074;52.764;6.896;2023-05-07T14:49:57;20.30;99.90
59303;DHT22;45074;52.764;6.896;2023-05-07T14:52:23;20.50;99.90
59303;DHT22;45074;52.764;6.896;2023-05-07T14:54:49;20.50;99.90
59303;DHT22;45074;52.764;6.896;2023-05-07T14:57:15;20.60;99.90
59303;DHT22;45074;52.764;6.896;2023-05-07T14:59:44;20.70;99.90
59303;DHT22;45074;52.764;6.896;2023-05-07T15:02:12;20.30;99.90
59303;DHT22;45074;52.764;6.896;2023-05-07T15:04:39;20.70;99.90
59303;DHT22;45074;52.764;6.896;2023-05-07T15:07:14;20.40;99.90
59303;DHT22;45074;52.764;6.896;2023-05-07T15:09:44;20.40;99.90
59303;DHT22;45074;52.764;6.896;2023-05-07T15:12:10;20.40;99.90
59303;DHT22;45074;52.764;6.896;2023-05-07T15:14:37;20.80;99.90
59303;DHT22;45074;52.764;6.896;2023-05-07T15:17:03;22.00;99.90
59303;DHT22;45074;52.764;6.896;2023-05-07T15:19:29;21.20;99.90
59303;DHT22;45074;52.764;6.896;2023-05-07T15:21:59;21.00;99.90
59303;DHT22;45074;52.764;6.896;2023-05-07T15:24:28;22.40;99.90
59303;DHT22;45074;52.764;6.896;2023-05-07T15:26:54;21.30;99.90
59303;DHT22;45074;52.764;6.896;2023-05-07T15:41:32;20.60;99.90
59303;DHT22;45074;52.764;6.896;2023-05-07T15:43:58;20.60;99.90
59303;DHT22;45074;52.764;6.896;2023-05-07T15:46:24;21.20;99.90
59303;DHT22;45074;52.764;6.896;2023-05-07T15:48:50;20.30;99.90
59303;DHT22;45074;52.764;6.896;2023-05-07T15:51:16;20.80;99.90
59303;DHT22;45074;52.764;6.896;2023-05-07T15:53:44;20.40;99.90
59303;DHT22;45074;52.764;6.896;2023-05-07T15:56:09;20.20;99.90
59303;DHT22;45074;52.764;6.896;2023-05-07T15:58:35;20.40;99.90
59303;DHT22;45074;52.764;6.896;2023-05-07T16:01:01;20.10;99.90
59303;DHT22;45074;52.764;6.896;2023-05-07T16:05:54;20.20;99.90
59303;DHT22;45074;52.764;6.896;2023-05-07T16:13:17;20.10;99.90
59303;DHT22;45074;52.764;6.896;2023-05-07T16:15:45;20.60;99.90
59303;DHT22;45074;52.764;6.896;2023-05-07T16:18:11;20.30;99.90
59303;DHT22;45074;52.764;6.896;2023-05-07T16:23:06;20.00;99.90
59303;DHT22;45074;52.764;6.896;2023-05-07T16:25:32;20.10;99.90
59303;DHT22;45074;52.764;6.896;2023-05-07T16:35:15;19.70;99.90
59303;DHT22;45074;52.764;6.896;2023-05-07T16:37:41;18.00;99.90
59303;DHT22;45074;52.764;6.896;2023-05-07T16:40:07;20.70;99.90
59303;DHT22;45074;52.764;6.896;2023-05-07T16:42:36;19.50;99.90
59303;DHT22;45074;52.764;6.896;2023-05-07T16:45:02;20.00;99.90
59303;DHT22;45074;52.764;6.896;2023-05-07T16:47:31;19.40;99.90
59303;DHT22;45074;52.764;6.896;2023-05-07T16:49:58;19.60;99.90
59303;DHT22;45074;52.764;6.896;2023-05-07T16:52:26;19.50;99.90
59303;DHT22;45074;52.764;6.896;2023-05-07T16:57:23;19.10;99.90
59303;DHT22;45074;52.764;6.896;2023-05-07T16:59:48;17.80;99.90
59303;DHT22;45074;52.764;6.896;2023-05-07T17:02:14;19.30;99.90
59303;DHT22;45074;52.764;6.896;2023-05-07T17:04:40;18.90;99.90
59303;DHT22;45074;52.764;6.896;2023-05-07T17:09:32;19.10;99.90
59303;DHT22;45074;52.764;6.896;2023-05-07T17:11:57;18.80;99.90
59303;DHT22;45074;52.764;6.896;2023-05-07T17:14:23;18.70;99.90
59303;DHT22;45074;52.764;6.896;2023-05-07T17:16:48;18.70;99.90
59303;DHT22;45074;52.764;6.896;2023-05-07T17:19:14;18.70;99.90
59303;DHT22;45074;52.764;6.896;2023-05-07T17:51:01;18.00;99.90
59303;DHT22;45074;52.764;6.896;2023-05-07T18:08:06;18.10;99.90
59303;DHT22;45074;52.764;6.896;2023-05-07T18:47:04;17.10;99.90
59303;DHT22;45074;52.764;6.896;2023-05-07T19:26:07;16.40;99.90
59303;DHT22;45074;52.764;6.896;2023-05-07T21:18:18;14.50;99.90
59303;DHT22;45074;52.764;6.896;2023-05-07T21:25:36;14.50;99.90
59303;DHT22;45074;52.764;6.896;2023-05-07T21:28:06;14.50;99.90
59303;DHT22;45074;52.764;6.896;2023-05-07T22:48:28;13.70;99.90
59303;DHT22;45074;52.764;6.896;2023-05-07T23:15:17;13.60;99.90
59303;DHT22;45074;52.764;6.896;2023-05-07T23:17:44;13.60;99.90
59303;DHT22;45074;52.764;6.896;2023-05-07T23:34:51;15.20;99.90
